セブ の空港の天気 - METARとTAF

マクタン・セブ国際空港 ( RPVM / CEB ) - フィリピン セブ / ラプ=ラプ
飛行場実況気象(Metar)
観測時間06/18 15:00 PHT (06/18 07:00 UTC)
風向・風速北北東 4m/s
視程10km以上
天気現象
少しの雲 雲底高度 610m
全天を覆う雲 雲底高度 2740m
気温31℃
湿度66%
気圧1009hPa
METARRPVM 180700Z 03007KT 360V060 9999 FEW020 OVC090 31/24 Q1009 RMK A2980
過去の天気等 Google飛行場航空写真 Wunderground天気予報

過去48時間のMETAR

飛行場予報(TAF)
発表時間: 6/18 13:00 PHT (6/18 05:00 UTC)
予報対象時間: 18日14時 PHT ~ 19日20時 PHT
風向・風速南西 3m/s
視程10km以上
少しの雲 雲底高度 610m
全天の8割程度の雲 雲底高度 9140m
18日14時 PHT ~ 18日20時 PHT に一時的に
風向・風速西北西 5m/s
少しの積乱雲 雲底高度 550m
少しの雲 雲底高度 610m
全天の8割程度の雲 雲底高度 2740m
18日20時 PHT ~ 19日2時 PHT に一時的に
風向・風速北 2m/s
視程8000m
天気現象弱い雷雨
少しの積乱雲 雲底高度 550m
少しの雲 雲底高度 610m
全天を覆う雲 雲底高度 2740m
TAF RPVM 180500Z 1806/1912 22006KT 9999 FEW020 BKN300
TEMPO 1806/1812 29010KT FEW018CB FEW020 BKN090
TEMPO 1812/1818 35004KT 8000 -TSRA FEW018CB FEW020 OVC090